Time;durP1;ratioP1;P1;durP2;ratioP2;P2;SDS_P1;SDS_P2;PMS_P1;PMS_P2;Temp;Humidity;BMP_temperature;BMP_pressure;BME280_temperature;BME280_humidity;BME280_pressure;Samples;Min_cycle;Max_cycle;Signal;HPM_P1;HPM_P2
2022/01/16 00:01:02;;;;;;;;;;;23.70;52.50;;;;;;5014472;28;931;-39
2022/01/16 00:06:16;;;;;;;;;;;23.70;52.50;;;;;;5014710;28;1922;-40
2022/01/16 00:08:42;;;;;;;;;;;23.70;52.70;;;;;;5015055;28;1053;-39
2022/01/16 00:11:09;;;;;;;;;;;23.60;53.70;;;;;;5014967;28;1009;-41
2022/01/16 00:13:36;;;;;;;;;;;23.60;52.60;;;;;;5015781;28;996;-41
2022/01/16 00:16:02;;;;;;;;;;;23.60;52.70;;;;;;5014949;28;1109;-39
2022/01/16 00:18:40;;;;;;;;;;;23.60;52.60;;;;;;5015686;28;929;-40
2022/01/16 00:21:07;;;;;;;;;;;23.60;52.80;;;;;;5014916;28;1000;-41
2022/01/16 00:23:35;;;;;;;;;;;23.60;52.70;;;;;;5015582;28;956;-39
2022/01/16 00:26:02;;;;;;;;;;;23.60;52.70;;;;;;5014988;28;1013;-38
2022/01/16 00:28:29;;;;;;;;;;;23.60;52.70;;;;;;5014912;28;1914;-39
2022/01/16 00:30:56;;;;;;;;;;;23.50;52.70;;;;;;5015624;28;1032;-39
2022/01/16 00:33:22;;;;;;;;;;;23.50;52.60;;;;;;5018519;28;980;-38
2022/01/16 00:35:49;;;;;;;;;;;23.50;52.70;;;;;;5018886;28;940;-38
2022/01/16 00:38:16;;;;;;;;;;;23.50;52.90;;;;;;5018884;28;1281;-39
2022/01/16 00:40:44;;;;;;;;;;;23.40;52.90;;;;;;5017892;28;943;-39
2022/01/16 00:43:11;;;;;;;;;;;23.40;52.80;;;;;;5018586;28;936;-38
2022/01/16 00:45:38;;;;;;;;;;;23.40;52.80;;;;;;5017732;28;1162;-40
2022/01/16 00:48:05;;;;;;;;;;;23.40;52.90;;;;;;5019020;28;1983;-39
2022/01/16 00:50:33;;;;;;;;;;;23.40;52.80;;;;;;5018537;28;1004;-40
2022/01/16 00:53:00;;;;;;;;;;;23.40;52.80;;;;;;5018376;28;1015;-38
2022/01/16 00:55:27;;;;;;;;;;;23.40;52.80;;;;;;5018863;28;961;-38
2022/01/16 00:57:55;;;;;;;;;;;23.30;53.00;;;;;;5017545;28;1004;-38
2022/01/16 01:00:22;;;;;;;;;;;23.30;53.10;;;;;;5018118;28;1015;-38
2022/01/16 01:02:50;;;;;;;;;;;23.30;53.20;;;;;;5017806;28;991;-39
2022/01/16 01:05:17;;;;;;;;;;;23.30;53.10;;;;;;5017887;28;1016;-38
2022/01/16 01:07:44;;;;;;;;;;;23.20;53.20;;;;;;5017436;28;1969;-38
2022/01/16 01:10:11;;;;;;;;;;;23.30;53.20;;;;;;5018009;28;988;-38
2022/01/16 01:12:52;;;;;;;;;;;23.20;53.30;;;;;;5018204;28;1004;-39
2022/01/16 01:15:21;;;;;;;;;;;23.20;53.20;;;;;;5017521;28;952;-38
2022/01/16 01:17:49;;;;;;;;;;;23.30;52.90;;;;;;5018477;28;945;-38
2022/01/16 01:20:18;;;;;;;;;;;23.40;52.60;;;;;;5017205;28;980;-40
2022/01/16 01:22:46;;;;;;;;;;;23.40;52.70;;;;;;5017355;28;911;-38
2022/01/16 01:25:13;;;;;;;;;;;23.40;52.60;;;;;;5018102;28;1787;-38
2022/01/16 01:27:41;;;;;;;;;;;23.40;52.70;;;;;;5017538;28;1976;-40
2022/01/16 01:30:09;;;;;;;;;;;23.30;52.80;;;;;;5018076;28;947;-38
2022/01/16 01:32:38;;;;;;;;;;;23.30;52.80;;;;;;5018437;28;1063;-38
2022/01/16 01:35:05;;;;;;;;;;;23.30;52.90;;;;;;5017930;28;922;-39
2022/01/16 01:37:32;;;;;;;;;;;23.30;52.90;;;;;;5017880;28;995;-38
2022/01/16 01:39:58;;;;;;;;;;;23.30;52.80;;;;;;5017746;28;997;-38
2022/01/16 01:42:31;;;;;;;;;;;23.30;52.90;;;;;;5016362;28;1027;-41
2022/01/16 01:53:13;;;;;;;;;;;23.20;53.20;;;;;;5017368;28;1008;-38
2022/01/16 01:55:42;;;;;;;;;;;23.10;53.20;;;;;;5017208;28;971;-40
2022/01/16 01:58:08;;;;;;;;;;;23.10;53.40;;;;;;5017783;28;965;-40
2022/01/16 02:00:35;;;;;;;;;;;23.10;53.40;;;;;;5017897;28;972;-39
2022/01/16 02:03:19;;;;;;;;;;;23.00;53.60;;;;;;5017032;28;964;-39
2022/01/16 02:05:46;;;;;;;;;;;23.10;53.50;;;;;;5017144;28;1015;-38
2022/01/16 02:08:12;;;;;;;;;;;23.00;53.50;;;;;;5017256;28;1898;-37
2022/01/16 02:10:40;;;;;;;;;;;23.00;53.50;;;;;;5017316;28;1139;-38
2022/01/16 02:13:10;;;;;;;;;;;23.10;53.30;;;;;;5017548;28;976;-37
2022/01/16 02:27:58;;;;;;;;;;;23.10;53.20;;;;;;5016932;28;975;-37
2022/01/16 02:35:31;;;;;;;;;;;23.40;51.90;;;;;;5027305;28;1123;-37
2022/01/16 02:37:58;;;;;;;;;;;23.50;51.70;;;;;;5016602;28;1016;-37
2022/01/16 02:40:27;;;;;;;;;;;23.50;51.80;;;;;;5016684;28;944;-36
2022/01/16 02:42:54;;;;;;;;;;;23.50;51.80;;;;;;5017111;28;1031;-37
2022/01/16 02:45:32;;;;;;;;;;;23.50;51.90;;;;;;5016095;28;1181;-38
2022/01/16 02:48:00;;;;;;;;;;;23.50;51.70;;;;;;5016977;28;1902;-37
2022/01/16 02:50:27;;;;;;;;;;;23.50;51.80;;;;;;5016844;28;952;-37
2022/01/16 02:52:54;;;;;;;;;;;23.50;51.70;;;;;;5016559;28;940;-38
2022/01/16 02:55:22;;;;;;;;;;;23.50;51.80;;;;;;5016958;28;982;-37
2022/01/16 02:57:51;;;;;;;;;;;23.50;51.90;;;;;;5016820;28;991;-38
2022/01/16 03:00:18;;;;;;;;;;;23.60;51.90;;;;;;5016814;28;1008;-37
2022/01/16 03:02:45;;;;;;;;;;;23.50;52.00;;;;;;5017048;28;1028;-38
2022/01/16 03:05:13;;;;;;;;;;;23.50;52.00;;;;;;5016411;28;996;-37
2022/01/16 03:07:40;;;;;;;;;;;23.50;52.10;;;;;;5016289;28;1867;-38
2022/01/16 03:10:25;;;;;;;;;;;23.50;51.90;;;;;;5016344;28;968;-37
2022/01/16 03:12:54;;;;;;;;;;;23.50;52.00;;;;;;5017544;28;1042;-37
2022/01/16 03:15:21;;;;;;;;;;;23.50;52.10;;;;;;5016473;28;1039;-38
2022/01/16 03:26:31;;;;;;;;;;;23.40;52.00;;;;;;5016074;28;916;-39
2022/01/16 03:28:59;;;;;;;;;;;23.40;52.20;;;;;;5015875;28;1898;-36
2022/01/16 03:31:26;;;;;;;;;;;23.30;52.40;;;;;;5015960;28;1016;-38
2022/01/16 03:33:53;;;;;;;;;;;23.20;52.50;;;;;;5016321;28;937;-37
2022/01/16 03:36:19;;;;;;;;;;;23.10;52.70;;;;;;5015835;28;952;-37
2022/01/16 03:38:46;;;;;;;;;;;23.20;52.70;;;;;;5016103;28;996;-37
2022/01/16 03:41:13;;;;;;;;;;;23.10;52.80;;;;;;5016196;28;968;-38
2022/01/16 03:43:40;;;;;;;;;;;23.10;52.70;;;;;;5015840;28;1095;-37
2022/01/16 03:46:08;;;;;;;;;;;23.10;52.70;;;;;;5015699;28;1007;-37
2022/01/16 03:48:34;;;;;;;;;;;23.10;52.70;;;;;;5015804;28;1891;-37
2022/01/16 03:51:01;;;;;;;;;;;23.10;52.70;;;;;;5015842;28;945;-37
2022/01/16 03:53:28;;;;;;;;;;;23.10;52.60;;;;;;5015440;28;1047;-38
2022/01/16 03:55:55;;;;;;;;;;;23.10;52.70;;;;;;5016399;28;992;-37
2022/01/16 03:58:22;;;;;;;;;;;23.10;52.80;;;;;;5015970;28;857;-38
2022/01/16 04:00:49;;;;;;;;;;;23.10;52.70;;;;;;5015161;28;1028;-37
2022/01/16 04:03:17;;;;;;;;;;;23.10;52.50;;;;;;5015910;28;1004;-37
2022/01/16 04:05:44;;;;;;;;;;;23.10;52.50;;;;;;5015159;28;988;-37
2022/01/16 04:08:10;;;;;;;;;;;23.20;52.50;;;;;;5016012;28;1979;-37
2022/01/16 04:10:37;;;;;;;;;;;23.20;52.50;;;;;;5015752;28;999;-37
2022/01/16 04:13:04;;;;;;;;;;;23.10;52.60;;;;;;5015973;28;996;-39
2022/01/16 04:15:33;;;;;;;;;;;23.10;52.60;;;;;;5015870;28;960;-37
2022/01/16 04:18:01;;;;;;;;;;;23.20;52.50;;;;;;5015210;28;968;-38
2022/01/16 04:20:29;;;;;;;;;;;23.10;52.40;;;;;;5015753;28;996;-37
2022/01/16 04:22:56;;;;;;;;;;;23.20;52.40;;;;;;5015629;28;953;-37
2022/01/16 04:25:23;;;;;;;;;;;23.20;52.50;;;;;;5015899;28;933;-37
2022/01/16 04:27:49;;;;;;;;;;;23.20;52.40;;;;;;5016004;28;1902;-37
2022/01/16 04:30:16;;;;;;;;;;;23.20;52.20;;;;;;5014900;28;1015;-37
2022/01/16 04:32:43;;;;;;;;;;;23.20;52.20;;;;;;5015092;28;944;-37
2022/01/16 04:35:11;;;;;;;;;;;23.20;52.20;;;;;;5015319;28;846;-37
2022/01/16 04:37:39;;;;;;;;;;;23.10;52.20;;;;;;5015283;28;1002;-37
2022/01/16 04:40:06;;;;;;;;;;;23.10;52.40;;;;;;5015200;28;1004;-37
2022/01/16 04:45:17;;;;;;;;;;;23.20;52.20;;;;;;5014458;28;1141;-37
2022/01/16 04:47:44;;;;;;;;;;;23.20;52.30;;;;;;5014989;28;1981;-36
2022/01/16 04:50:13;;;;;;;;;;;23.10;52.30;;;;;;5014900;28;1011;-37
2022/01/16 04:52:42;;;;;;;;;;;23.20;52.10;;;;;;5015013;28;953;-37
2022/01/16 04:55:09;;;;;;;;;;;23.30;52.20;;;;;;5015198;28;933;-37
2022/01/16 04:57:36;;;;;;;;;;;23.20;52.10;;;;;;5014880;28;1024;-37
2022/01/16 05:00:05;;;;;;;;;;;23.10;52.10;;;;;;5015111;28;964;-37
2022/01/16 05:02:32;;;;;;;;;;;23.10;52.40;;;;;;5014973;28;884;-37
2022/01/16 05:04:59;;;;;;;;;;;23.10;52.30;;;;;;5015026;28;940;-37
2022/01/16 05:07:26;;;;;;;;;;;23.10;52.30;;;;;;5014707;28;1015;-37
2022/01/16 05:09:54;;;;;;;;;;;23.20;52.20;;;;;;5014574;28;1961;-36
2022/01/16 05:12:28;;;;;;;;;;;23.30;52.10;;;;;;5014639;28;991;-37
2022/01/16 05:17:39;;;;;;;;;;;23.10;52.30;;;;;;5016253;28;923;-37
2022/01/16 05:20:06;;;;;;;;;;;23.10;52.40;;;;;;5017877;28;1000;-37
2022/01/16 05:22:33;;;;;;;;;;;23.10;52.30;;;;;;5017576;28;988;-37
2022/01/16 05:25:01;;;;;;;;;;;23.20;52.40;;;;;;5017646;28;926;-37
2022/01/16 05:27:28;;;;;;;;;;;23.10;52.30;;;;;;5017897;28;1174;-38
2022/01/16 05:29:55;;;;;;;;;;;23.20;52.10;;;;;;5017324;28;1902;-37
2022/01/16 05:32:21;;;;;;;;;;;23.20;52.10;;;;;;5018660;28;974;-37
2022/01/16 05:34:48;;;;;;;;;;;23.30;52.10;;;;;;5017785;28;1823;-37
2022/01/16 05:37:15;;;;;;;;;;;23.20;52.10;;;;;;5018269;28;986;-37
2022/01/16 05:39:44;;;;;;;;;;;23.20;52.20;;;;;;5017978;28;984;-37
2022/01/16 05:42:13;;;;;;;;;;;23.20;52.30;;;;;;5015521;28;1004;-37
2022/01/16 05:44:40;;;;;;;;;;;23.10;52.40;;;;;;5016707;28;1296;-37
2022/01/16 05:47:10;;;;;;;;;;;23.10;52.30;;;;;;5017690;28;997;-37
2022/01/16 05:49:37;;;;;;;;;;;23.10;52.30;;;;;;5016590;28;1967;-37
2022/01/16 05:52:04;;;;;;;;;;;23.20;52.20;;;;;;5017174;28;1063;-37
2022/01/16 05:54:30;;;;;;;;;;;23.10;52.10;;;;;;5017551;28;992;-37
2022/01/16 05:56:57;;;;;;;;;;;23.10;52.20;;;;;;5016831;28;1223;-38
2022/01/16 05:59:25;;;;;;;;;;;23.10;52.30;;;;;;5016837;28;921;-38
2022/01/16 06:01:52;;;;;;;;;;;23.10;52.20;;;;;;5017009;28;995;-37
2022/01/16 06:04:19;;;;;;;;;;;23.10;52.20;;;;;;5016790;28;2006;-38
2022/01/16 06:06:46;;;;;;;;;;;23.10;52.20;;;;;;5016473;28;999;-37
2022/01/16 06:09:12;;;;;;;;;;;23.20;52.10;;;;;;5016274;28;1906;-37
2022/01/16 06:11:39;;;;;;;;;;;23.10;52.10;;;;;;5016979;28;1005;-38
2022/01/16 06:14:06;;;;;;;;;;;23.10;52.20;;;;;;5016444;28;928;-37
2022/01/16 06:16:35;;;;;;;;;;;23.10;52.20;;;;;;5017005;28;933;-37
2022/01/16 06:19:02;;;;;;;;;;;23.10;52.30;;;;;;5017152;28;969;-39
2022/01/16 06:21:28;;;;;;;;;;;23.00;52.30;;;;;;5016667;28;1008;-38
2022/01/16 06:23:55;;;;;;;;;;;23.00;52.20;;;;;;5016639;28;940;-37
2022/01/16 06:26:22;;;;;;;;;;;23.10;52.30;;;;;;5016368;28;948;-37
2022/01/16 06:28:48;;;;;;;;;;;23.10;52.30;;;;;;5015668;28;1942;-38
2022/01/16 06:31:15;;;;;;;;;;;23.10;52.20;;;;;;5016491;28;988;-37
2022/01/16 06:33:43;;;;;;;;;;;23.00;52.30;;;;;;5016774;28;897;-38
2022/01/16 06:36:10;;;;;;;;;;;23.10;52.30;;;;;;5016025;28;944;-38
2022/01/16 06:38:37;;;;;;;;;;;23.10;52.20;;;;;;5016268;28;996;-37
2022/01/16 06:41:04;;;;;;;;;;;23.00;52.20;;;;;;5016449;28;941;-38
2022/01/16 06:43:30;;;;;;;;;;;23.00;52.30;;;;;;5017035;28;1015;-37
2022/01/16 06:45:57;;;;;;;;;;;23.00;52.20;;;;;;5016154;28;1160;-37
2022/01/16 06:48:24;;;;;;;;;;;23.00;52.10;;;;;;5016464;28;1902;-37
2022/01/16 06:50:52;;;;;;;;;;;23.10;52.10;;;;;;5015595;28;1097;-37
2022/01/16 06:53:19;;;;;;;;;;;23.10;52.00;;;;;;5015880;28;907;-38
2022/01/16 06:55:46;;;;;;;;;;;23.10;52.10;;;;;;5015831;28;997;-37
2022/01/16 06:58:13;;;;;;;;;;;23.10;52.20;;;;;;5014998;28;1011;-37
2022/01/16 07:00:39;;;;;;;;;;;23.10;52.10;;;;;;5015961;28;996;-38
2022/01/16 07:03:06;;;;;;;;;;;23.10;52.00;;;;;;5015152;28;1008;-38
2022/01/16 07:05:33;;;;;;;;;;;23.30;51.90;;;;;;5015755;28;959;-37
2022/01/16 07:08:01;;;;;;;;;;;23.30;51.70;;;;;;5016252;28;1017;-37
2022/01/16 07:10:27;;;;;;;;;;;23.30;51.70;;;;;;5015428;28;1906;-37
2022/01/16 07:12:54;;;;;;;;;;;23.30;51.90;;;;;;5016035;28;934;-37
2022/01/16 07:15:21;;;;;;;;;;;23.30;51.80;;;;;;5015579;28;1027;-39
2022/01/16 07:17:48;;;;;;;;;;;23.30;51.90;;;;;;5015988;28;944;-36
2022/01/16 07:20:15;;;;;;;;;;;23.30;51.90;;;;;;5015246;28;937;-38
2022/01/16 07:22:42;;;;;;;;;;;23.30;52.00;;;;;;5015925;28;976;-37
2022/01/16 07:25:11;;;;;;;;;;;23.30;52.00;;;;;;5015072;28;1000;-38
2022/01/16 07:27:38;;;;;;;;;;;23.40;51.70;;;;;;5015190;28;1043;-38
2022/01/16 07:30:05;;;;;;;;;;;23.30;51.60;;;;;;5014818;28;1977;-37
2022/01/16 07:32:32;;;;;;;;;;;23.30;51.70;;;;;;5015951;28;999;-37
2022/01/16 07:34:59;;;;;;;;;;;23.30;51.80;;;;;;5015244;28;1000;-37
2022/01/16 07:37:26;;;;;;;;;;;23.30;52.00;;;;;;5015322;28;1036;-38
2022/01/16 07:39:53;;;;;;;;;;;23.20;52.00;;;;;;5015230;28;993;-38
2022/01/16 07:42:21;;;;;;;;;;;23.20;51.90;;;;;;5014174;28;970;-37
2022/01/16 07:44:48;;;;;;;;;;;23.20;52.00;;;;;;5014561;28;1129;-38
2022/01/16 07:47:14;;;;;;;;;;;23.20;51.90;;;;;;5014975;28;956;-38
2022/01/16 07:49:41;;;;;;;;;;;23.20;51.80;;;;;;5015147;28;1900;-37
2022/01/16 07:52:08;;;;;;;;;;;23.20;51.80;;;;;;5014524;28;949;-40
2022/01/16 07:54:35;;;;;;;;;;;23.30;51.80;;;;;;5014242;28;1019;-42
2022/01/16 07:57:02;;;;;;;;;;;23.20;51.80;;;;;;5013977;28;958;-39
2022/01/16 07:59:30;;;;;;;;;;;23.20;51.80;;;;;;5015520;28;951;-39
2022/01/16 08:01:57;;;;;;;;;;;23.20;51.90;;;;;;5014236;28;1206;-39
2022/01/16 08:04:24;;;;;;;;;;;23.10;52.00;;;;;;5014654;28;1004;-38
2022/01/16 08:06:50;;;;;;;;;;;23.20;51.90;;;;;;5014840;28;969;-43
2022/01/16 08:09:17;;;;;;;;;;;23.10;52.10;;;;;;5014636;28;1894;-42
2022/01/16 08:11:44;;;;;;;;;;;23.10;52.20;;;;;;5014461;28;940;-40
2022/01/16 08:14:11;;;;;;;;;;;23.10;52.20;;;;;;5014189;28;1073;-39
2022/01/16 08:16:39;;;;;;;;;;;23.00;52.30;;;;;;5014152;28;1034;-41
2022/01/16 08:19:05;;;;;;;;;;;23.00;52.30;;;;;;5013644;28;980;-41
2022/01/16 08:21:32;;;;;;;;;;;23.10;52.20;;;;;;5014342;28;944;-41
2022/01/16 08:24:03;;;;;;;;;;;23.10;52.20;;;;;;5013901;28;932;-42
2022/01/16 08:26:30;;;;;;;;;;;23.10;52.10;;;;;;5013851;28;999;-42
2022/01/16 08:28:56;;;;;;;;;;;23.00;52.10;;;;;;5013306;28;1898;-42
2022/01/16 08:31:23;;;;;;;;;;;23.10;52.20;;;;;;5013655;28;1027;-43
2022/01/16 08:33:51;;;;;;;;;;;23.00;52.20;;;;;;5014660;28;1141;-40
2022/01/16 08:36:18;;;;;;;;;;;23.00;52.40;;;;;;5013920;28;1020;-39
2022/01/16 08:38:44;;;;;;;;;;;23.00;52.20;;;;;;5013114;28;999;-40
2022/01/16 08:41:11;;;;;;;;;;;23.00;52.20;;;;;;5013905;28;916;-40
2022/01/16 08:43:38;;;;;;;;;;;23.10;52.10;;;;;;5013519;28;1013;-40
2022/01/16 08:46:05;;;;;;;;;;;23.00;52.20;;;;;;5013468;28;961;-40
2022/01/16 08:48:32;;;;;;;;;;;23.00;51.90;;;;;;5014553;28;928;-39
2022/01/16 08:51:00;;;;;;;;;;;23.10;51.60;;;;;;5012785;28;1983;-38
2022/01/16 08:53:27;;;;;;;;;;;23.10;51.50;;;;;;5017234;28;999;-41
2022/01/16 08:55:54;;;;;;;;;;;23.00;51.60;;;;;;5016730;28;1015;-39
2022/01/16 08:58:21;;;;;;;;;;;23.10;51.70;;;;;;5017498;28;1113;-39
2022/01/16 09:00:50;;;;;;;;;;;23.10;51.40;;;;;;5017380;28;996;-39
2022/01/16 09:03:17;;;;;;;;;;;23.20;51.90;;;;;;5017144;28;980;-38
2022/01/16 09:05:44;;;;;;;;;;;23.30;50.70;;;;;;5016149;28;940;-40
2022/01/16 09:08:13;;;;;;;;;;;23.30;50.70;;;;;;5017116;28;909;-39
2022/01/16 09:10:41;;;;;;;;;;;23.20;50.70;;;;;;5016854;28;1902;-39
2022/01/16 09:13:08;;;;;;;;;;;23.20;50.70;;;;;;5017308;28;1028;-40
2022/01/16 09:15:35;;;;;;;;;;;23.10;50.70;;;;;;5017137;28;945;-42
2022/01/16 09:18:02;;;;;;;;;;;23.10;50.70;;;;;;5016162;28;1029;-39
2022/01/16 09:20:28;;;;;;;;;;;23.10;50.80;;;;;;5017046;28;932;-40
2022/01/16 09:22:55;;;;;;;;;;;23.10;50.90;;;;;;5016426;28;1002;-40
2022/01/16 09:25:23;;;;;;;;;;;23.00;51.00;;;;;;5016528;28;976;-38
2022/01/16 09:27:51;;;;;;;;;;;23.00;51.10;;;;;;5016734;28;984;-38
2022/01/16 09:30:18;;;;;;;;;;;22.90;51.20;;;;;;5016038;28;1914;-39
2022/01/16 09:32:45;;;;;;;;;;;23.00;51.00;;;;;;5015883;28;964;-39
2022/01/16 09:35:12;;;;;;;;;;;23.00;51.10;;;;;;5017166;28;929;-38
2022/01/16 09:37:40;;;;;;;;;;;22.90;51.10;;;;;;5016980;28;1031;-38
2022/01/16 09:40:08;;;;;;;;;;;23.00;51.10;;;;;;5017097;28;1012;-38
2022/01/16 09:42:36;;;;;;;;;;;23.00;51.20;;;;;;5015976;28;1001;-41
2022/01/16 09:45:03;;;;;;;;;;;22.90;51.30;;;;;;5016837;28;1225;-38
2022/01/16 09:47:30;;;;;;;;;;;22.80;51.50;;;;;;5016625;28;1854;-39
2022/01/16 09:49:57;;;;;;;;;;;22.80;51.70;;;;;;5015825;28;1981;-40
2022/01/16 09:52:24;;;;;;;;;;;22.80;51.70;;;;;;5015387;28;999;-39
2022/01/16 09:54:51;;;;;;;;;;;22.80;51.70;;;;;;5016402;28;992;-39
2022/01/16 09:57:18;;;;;;;;;;;22.80;51.60;;;;;;5016265;28;940;-38
2022/01/16 09:59:46;;;;;;;;;;;22.80;51.50;;;;;;5016407;28;1015;-38
2022/01/16 10:02:12;;;;;;;;;;;22.80;51.50;;;;;;5015938;28;1008;-38
2022/01/16 10:04:40;;;;;;;;;;;22.80;51.50;;;;;;5014633;28;1389;-38
2022/01/16 10:07:08;;;;;;;;;;;22.80;51.60;;;;;;5016636;28;1003;-39
2022/01/16 10:09:35;;;;;;;;;;;23.00;51.40;;;;;;5016771;28;1902;-41
2022/01/16 10:12:04;;;;;;;;;;;23.10;51.10;;;;;;5016067;28;1434;-39
2022/01/16 10:14:32;;;;;;;;;;;23.10;51.10;;;;;;5015022;28;976;-39
2022/01/16 10:17:09;;;;;;;;;;;23.00;51.10;;;;;;5014787;28;906;-41
2022/01/16 10:19:35;;;;;;;;;;;23.00;51.40;;;;;;5016348;28;1008;-39
2022/01/16 10:22:04;;;;;;;;;;;22.90;51.40;;;;;;5015381;28;1008;-38
2022/01/16 10:24:33;;;;;;;;;;;23.00;51.20;;;;;;5015566;28;965;-39
2022/01/16 10:27:17;;;;;;;;;;;23.00;51.20;;;;;;5015269;28;985;-38
2022/01/16 10:29:45;;;;;;;;;;;22.90;51.30;;;;;;5015548;28;1898;-41
2022/01/16 10:32:14;;;;;;;;;;;23.00;51.30;;;;;;5015741;28;947;-39
2022/01/16 10:34:41;;;;;;;;;;;23.00;51.20;;;;;;5015897;28;1059;-41
2022/01/16 10:37:24;;;;;;;;;;;23.10;51.10;;;;;;5014991;28;951;-38
2022/01/16 10:39:52;;;;;;;;;;;22.90;51.10;;;;;;5015476;28;996;-37
2022/01/16 10:42:19;;;;;;;;;;;22.90;51.40;;;;;;5016104;28;1016;-40
2022/01/16 10:44:46;;;;;;;;;;;22.90;51.40;;;;;;5015541;28;1068;-38
2022/01/16 10:47:31;;;;;;;;;;;22.80;51.60;;;;;;5015992;28;938;-37
2022/01/16 10:50:04;;;;;;;;;;;22.80;51.60;;;;;;5016007;28;1983;-38
2022/01/16 10:52:30;;;;;;;;;;;22.80;51.70;;;;;;5015390;28;1083;-39
2022/01/16 10:55:04;;;;;;;;;;;22.80;51.90;;;;;;5015071;28;905;-39
2022/01/16 10:57:31;;;;;;;;;;;23.00;49.90;;;;;;5014995;28;944;-38
2022/01/16 11:00:05;;;;;;;;;;;22.90;45.80;;;;;;5013732;28;964;-37
2022/01/16 11:02:33;;;;;;;;;;;22.70;46.40;;;;;;5013726;28;1001;-37
2022/01/16 11:05:05;;;;;;;;;;;22.60;48.30;;;;;;5014076;28;1015;-36
2022/01/16 11:07:31;;;;;;;;;;;22.50;49.10;;;;;;5015421;28;1013;-38
2022/01/16 11:10:00;;;;;;;;;;;22.60;49.50;;;;;;5014463;28;1898;-36
2022/01/16 11:12:27;;;;;;;;;;;22.60;49.90;;;;;;5016417;28;956;-36
2022/01/16 11:14:53;;;;;;;;;;;22.50;50.30;;;;;;5012581;28;885;-36
2022/01/16 11:17:20;;;;;;;;;;;22.50;50.60;;;;;;5014519;28;980;-37
2022/01/16 11:19:48;;;;;;;;;;;22.60;51.00;;;;;;5013646;28;1004;-37
2022/01/16 11:22:22;;;;;;;;;;;22.70;50.90;;;;;;5013891;28;1050;-39
2022/01/16 11:25:13;;;;;;;;;;;22.80;50.70;;;;;;5015162;28;1143;-41
2022/01/16 11:27:36;;;;;;;;;;;22.80;50.90;;;;;;5015884;28;1420;-39
2022/01/16 11:30:03;;;;;;;;;;;22.80;50.70;;;;;;5014693;28;1968;-41
2022/01/16 11:32:30;;;;;;;;;;;22.70;50.80;;;;;;5014565;28;962;-38
2022/01/16 11:34:58;;;;;;;;;;;22.70;50.80;;;;;;5014404;28;946;-40
2022/01/16 11:37:25;;;;;;;;;;;22.70;50.80;;;;;;5014465;28;1027;-39
2022/01/16 11:39:52;;;;;;;;;;;22.70;51.00;;;;;;5013384;28;973;-40
2022/01/16 11:42:35;;;;;;;;;;;22.70;51.00;;;;;;5012860;28;1028;-38
2022/01/16 11:45:02;;;;;;;;;;;22.70;51.10;;;;;;5012809;28;1103;-39
2022/01/16 11:47:29;;;;;;;;;;;22.70;51.00;;;;;;5011516;28;990;-39
2022/01/16 11:50:06;;;;;;;;;;;22.70;50.80;;;;;;5014223;28;1894;-39
2022/01/16 11:52:38;;;;;;;;;;;22.80;50.80;;;;;;5014169;28;967;-39
2022/01/16 11:55:08;;;;;;;;;;;22.70;51.10;;;;;;5014055;28;905;-41
2022/01/16 11:57:36;;;;;;;;;;;22.80;50.90;;;;;;5014545;28;1057;-38
2022/01/16 12:00:11;;;;;;;;;;;22.80;50.80;;;;;;5013938;28;1020;-37
2022/01/16 12:02:39;;;;;;;;;;;22.90;50.90;;;;;;5014767;28;1035;-38
2022/01/16 12:05:07;;;;;;;;;;;22.90;50.80;;;;;;5013703;28;940;-37
2022/01/16 12:07:45;;;;;;;;;;;22.80;50.60;;;;;;5014995;28;985;-37
2022/01/16 12:10:12;;;;;;;;;;;22.60;50.70;;;;;;5014056;28;1961;-37
2022/01/16 12:12:39;;;;;;;;;;;22.60;50.90;;;;;;5013721;28;1872;-40
2022/01/16 12:15:07;;;;;;;;;;;22.50;51.00;;;;;;5011175;28;889;-39
2022/01/16 12:17:35;;;;;;;;;;;22.60;51.20;;;;;;5013013;28;964;-39
2022/01/16 12:20:17;;;;;;;;;;;22.70;50.90;;;;;;5013268;28;1020;-39
2022/01/16 12:22:46;;;;;;;;;;;22.60;50.80;;;;;;5014150;28;1180;-39
2022/01/16 12:25:20;;;;;;;;;;;22.70;50.90;;;;;;5012360;28;928;-38
2022/01/16 12:27:47;;;;;;;;;;;22.70;50.80;;;;;;5015266;28;1050;-39
2022/01/16 12:30:26;;;;;;;;;;;22.80;51.50;;;;;;5016876;28;1902;-40
2022/01/16 12:32:54;;;;;;;;;;;22.80;51.10;;;;;;5017271;28;988;-39
2022/01/16 12:35:35;;;;;;;;;;;22.80;51.40;;;;;;5017418;28;924;-39
2022/01/16 12:38:06;;;;;;;;;;;22.80;51.30;;;;;;5019331;27;1116;-42
2022/01/16 12:40:33;;;;;;;;;;;22.90;51.60;;;;;;5016129;28;1023;-41
2022/01/16 12:43:00;;;;;;;;;;;22.90;52.20;;;;;;5016349;28;1441;-41
2022/01/16 12:45:29;;;;;;;;;;;22.90;51.90;;;;;;5016535;28;1145;-42
2022/01/16 12:47:57;;;;;;;;;;;23.00;52.10;;;;;;5015231;28;1059;-41
2022/01/16 12:50:24;;;;;;;;;;;23.10;51.80;;;;;;5017342;28;1914;-41
2022/01/16 12:52:50;;;;;;;;;;;23.10;51.80;;;;;;5016526;28;976;-40
2022/01/16 12:55:18;;;;;;;;;;;23.20;52.00;;;;;;5016302;28;936;-39
2022/01/16 12:57:45;;;;;;;;;;;23.30;51.90;;;;;;5017286;28;919;-40
2022/01/16 13:00:13;;;;;;;;;;;23.30;51.70;;;;;;5016887;28;992;-38
2022/01/16 13:02:39;;;;;;;;;;;23.40;51.60;;;;;;5016286;28;1012;-38
2022/01/16 13:05:06;;;;;;;;;;;23.40;51.50;;;;;;5015845;28;956;-37
2022/01/16 13:07:33;;;;;;;;;;;23.40;51.40;;;;;;5016502;28;953;-38
2022/01/16 13:10:00;;;;;;;;;;;23.40;51.40;;;;;;5016118;28;968;-40
2022/01/16 13:12:30;;;;;;;;;;;23.50;51.10;;;;;;5015123;28;1906;-40
2022/01/16 13:14:59;;;;;;;;;;;23.50;51.20;;;;;;5014780;28;1017;-41
2022/01/16 13:17:26;;;;;;;;;;;23.50;51.40;;;;;;5016059;28;999;-39
2022/01/16 13:19:56;;;;;;;;;;;23.40;51.30;;;;;;5015572;28;940;-39
2022/01/16 13:22:24;;;;;;;;;;;23.50;51.30;;;;;;5016264;28;944;-41
2022/01/16 13:24:51;;;;;;;;;;;23.50;51.60;;;;;;5016467;28;956;-39
2022/01/16 13:27:18;;;;;;;;;;;23.40;51.60;;;;;;5016230;28;993;-38
2022/01/16 13:29:47;;;;;;;;;;;23.40;51.90;;;;;;5016779;28;932;-38
2022/01/16 13:32:15;;;;;;;;;;;23.40;51.90;;;;;;5016044;28;1906;-39
2022/01/16 13:34:43;;;;;;;;;;;23.30;52.00;;;;;;5016471;28;945;-38
2022/01/16 13:37:13;;;;;;;;;;;23.30;52.00;;;;;;5016127;28;960;-39
2022/01/16 13:39:41;;;;;;;;;;;23.20;52.20;;;;;;5015960;28;968;-38
2022/01/16 13:42:11;;;;;;;;;;;23.20;52.40;;;;;;5015995;28;927;-40
2022/01/16 13:44:38;;;;;;;;;;;23.20;52.20;;;;;;5015568;28;2003;-40
2022/01/16 13:47:06;;;;;;;;;;;23.10;52.50;;;;;;5015384;28;958;-39
2022/01/16 13:49:33;;;;;;;;;;;23.00;52.60;;;;;;5013097;28;919;-39
2022/01/16 13:52:01;;;;;;;;;;;23.10;52.60;;;;;;5015468;28;1979;-38
2022/01/16 13:54:29;;;;;;;;;;;23.00;52.80;;;;;;5015156;28;1055;-40
2022/01/16 13:56:57;;;;;;;;;;;22.90;52.70;;;;;;5015049;28;1004;-39
2022/01/16 13:59:24;;;;;;;;;;;23.00;52.70;;;;;;5015974;28;1010;-38
2022/01/16 14:01:52;;;;;;;;;;;23.00;52.70;;;;;;5014473;28;940;-38
2022/01/16 14:04:21;;;;;;;;;;;22.90;52.80;;;;;;5014033;28;988;-38
2022/01/16 14:06:48;;;;;;;;;;;22.90;52.60;;;;;;5014285;28;1007;-38
2022/01/16 14:09:15;;;;;;;;;;;22.90;52.80;;;;;;5015050;28;983;-38
2022/01/16 14:11:44;;;;;;;;;;;22.90;53.00;;;;;;5015458;28;1986;-41
2022/01/16 14:14:11;;;;;;;;;;;22.80;52.90;;;;;;5013372;28;939;-38
2022/01/16 14:16:43;;;;;;;;;;;22.80;53.00;;;;;;5014901;28;1025;-38
2022/01/16 14:19:12;;;;;;;;;;;22.80;53.10;;;;;;5015161;28;995;-42
2022/01/16 14:22:06;;;;;;;;;;;22.80;53.10;;;;;;5013923;28;969;-39
2022/01/16 14:24:34;;;;;;;;;;;22.80;53.10;;;;;;5015563;28;1019;-41
2022/01/16 14:27:01;;;;;;;;;;;22.90;53.10;;;;;;5014551;28;996;-41
2022/01/16 14:29:28;;;;;;;;;;;23.10;52.80;;;;;;5015785;28;1023;-40
2022/01/16 14:31:56;;;;;;;;;;;23.20;52.90;;;;;;5015220;28;1902;-39
2022/01/16 14:34:24;;;;;;;;;;;23.30;52.70;;;;;;5013970;28;928;-39
2022/01/16 14:36:52;;;;;;;;;;;23.30;52.50;;;;;;5015178;28;944;-39
2022/01/16 14:39:20;;;;;;;;;;;23.40;52.40;;;;;;5014714;28;1015;-41
2022/01/16 14:41:49;;;;;;;;;;;23.50;51.80;;;;;;5016005;28;1019;-39
2022/01/16 14:44:16;;;;;;;;;;;23.60;52.10;;;;;;5015455;28;1085;-39
2022/01/16 14:46:43;;;;;;;;;;;23.60;51.90;;;;;;5015090;28;992;-40
2022/01/16 14:49:10;;;;;;;;;;;23.70;52.10;;;;;;5015511;28;940;-40
2022/01/16 14:51:36;;;;;;;;;;;23.70;51.80;;;;;;5014579;28;1902;-40
2022/01/16 14:54:05;;;;;;;;;;;23.70;51.60;;;;;;5014547;28;959;-38
2022/01/16 14:56:32;;;;;;;;;;;23.80;51.50;;;;;;5014340;28;989;-42
2022/01/16 14:58:59;;;;;;;;;;;23.80;51.20;;;;;;5014879;28;984;-39
2022/01/16 15:01:25;;;;;;;;;;;23.70;51.20;;;;;;5015082;28;988;-39
2022/01/16 15:03:52;;;;;;;;;;;23.80;51.10;;;;;;5015166;28;1047;-40
2022/01/16 15:06:19;;;;;;;;;;;23.70;51.10;;;;;;5014713;28;983;-42
2022/01/16 15:08:46;;;;;;;;;;;23.70;51.10;;;;;;5015080;28;1088;-41
2022/01/16 15:11:15;;;;;;;;;;;23.70;51.10;;;;;;5015808;28;1975;-41
2022/01/16 15:13:42;;;;;;;;;;;23.90;50.80;;;;;;5016259;28;975;-39
2022/01/16 15:16:10;;;;;;;;;;;23.90;50.60;;;;;;5015741;28;975;-42
2022/01/16 15:18:39;;;;;;;;;;;23.90;50.40;;;;;;5015394;28;964;-40
2022/01/16 15:21:06;;;;;;;;;;;23.90;50.20;;;;;;5014509;28;984;-43
2022/01/16 15:23:33;;;;;;;;;;;23.90;50.20;;;;;;5015679;28;1061;-39